You are listening to:
KDED CTAF/Misc - DeLand, Florida, United States

KDED 250235Z AUTO 21003KT 10SM BKN110 23/22 A3015 RMK AO2 TSNO T02280218

If stream doesn't start automatically press the play button
If stream stops then reload player then press play